Time;durP1;ratioP1;P1;durP2;ratioP2;P2;SDS_P1;SDS_P2;PMS_P1;PMS_P2;Temp;Humidity;BMP_temperature;BMP_pressure;BME280_temperature;BME280_humidity;BME280_pressure;Samples;Min_cycle;Max_cycle;Signal;HPM_P1;HPM_P2
2022/02/11 00:01:45;;;;;;;7.63;4.30;;;2.80;99.90;;;;;;5055066;28;20455;-59
2022/02/11 00:04:39;;;;;;;8.60;5.60;;;2.80;99.90;;;;;;5055008;28;20481;-59
2022/02/11 00:07:03;;;;;;;10.07;5.17;;;2.80;99.90;;;;;;5055462;28;20455;-58
2022/02/11 00:09:31;;;;;;;7.77;4.63;;;2.80;99.90;;;;;;5057314;28;20452;-56
2022/02/11 00:11:58;;;;;;;9.27;5.30;;;2.80;99.90;;;;;;5055061;28;20448;-55
2022/02/11 00:14:26;;;;;;;11.50;6.07;;;2.80;99.90;;;;;;5055265;28;20468;-57
2022/02/11 00:16:53;;;;;;;9.53;5.60;;;2.80;99.90;;;;;;5054691;28;20455;-56
2022/02/11 00:19:20;;;;;;;10.80;6.10;;;2.80;99.90;;;;;;5054896;28;20448;-58
2022/02/11 00:21:46;;;;;;;12.43;6.57;;;2.80;99.90;;;;;;5054624;28;20858;-58
2022/02/11 00:24:15;;;;;;;11.47;5.87;;;2.80;99.90;;;;;;5054612;28;20491;-56
2022/02/11 00:26:51;;;;;;;9.17;5.33;;;2.80;99.90;;;;;;5054613;28;20458;-57
2022/02/11 00:32:10;;;;;;;11.87;7.03;;;2.90;99.90;;;;;;5054577;28;20431;-60
2022/02/11 00:34:43;;;;;;;12.33;6.47;;;2.90;99.90;;;;;;5054385;28;20974;-53
2022/02/11 00:37:13;;;;;;;11.40;6.37;;;2.90;99.90;;;;;;5054839;28;20961;-61
2022/02/11 00:40:06;;;;;;;13.20;6.50;;;2.90;99.90;;;;;;5054681;28;20551;-58
2022/02/11 00:45:52;;;;;;;14.40;7.43;;;2.90;99.90;;;;;;5089517;27;20552;-59
2022/02/11 01:02:18;;;;;;;12.43;8.23;;;3.10;99.90;;;;;;5089165;28;21023;-58
2022/02/11 01:04:44;;;;;;;15.97;8.53;;;3.10;99.90;;;;;;5088744;28;20478;-59
2022/02/11 01:07:11;;;;;;;14.47;8.60;;;3.00;99.90;;;;;;5089021;28;20937;-59
2022/02/11 01:09:39;;;;;;;15.60;9.47;;;3.10;99.90;;;;;;5089402;28;20507;-58
2022/02/11 01:12:07;;;;;;;17.07;10.50;;;3.10;99.90;;;;;;5089105;28;20832;-59
2022/02/11 01:14:36;;;;;;;18.47;10.70;;;3.10;99.90;;;;;;5089225;28;20446;-56
2022/02/11 01:17:12;;;;;;;19.43;10.60;;;3.00;99.90;;;;;;5089217;28;20460;-59
2022/02/11 01:19:48;;;;;;;16.33;10.73;;;3.10;99.90;;;;;;5089341;28;20289;-57
2022/02/11 01:22:25;;;;;;;19.33;10.57;;;3.00;99.90;;;;;;5088473;28;20544;-59
2022/02/11 01:25:09;;;;;;;20.50;10.73;;;3.00;99.90;;;;;;5088895;28;20491;-59
2022/02/11 01:27:42;;;;;;;17.67;10.37;;;3.00;99.90;;;;;;5088372;28;20461;-59
2022/02/11 01:30:38;;;;;;;17.10;11.30;;;2.90;99.90;;;;;;5088641;28;20545;-59
2022/02/11 01:36:10;;;;;;;18.20;11.13;;;2.70;99.90;;;;;;5089248;28;20537;-60
2022/02/11 01:39:02;;;;;;;21.00;11.27;;;2.70;99.90;;;;;;5089544;28;20435;-60
2022/02/11 01:52:53;;;;;;;21.00;12.17;;;2.50;99.90;;;;;;5068949;28;20896;-59
2022/02/11 01:55:40;;;;;;;20.17;12.03;;;2.50;99.90;;;;;;5068916;28;20482;-57
2022/02/11 02:04:13;;;;;;;22.00;12.93;;;2.40;99.90;;;;;;5064776;28;20466;-59
2022/02/11 02:09:59;;;;;;;21.93;13.40;;;2.40;99.90;;;;;;5050844;28;20454;-58
2022/02/11 02:12:39;;;;;;;26.73;14.77;;;2.30;99.90;;;;;;5068305;28;20457;-59
2022/02/11 02:15:46;;;;;;;20.00;11.43;;;2.30;99.90;;;;;;5068128;28;21090;-59
2022/02/11 02:23:57;;;;;;;18.37;11.70;;;2.30;99.90;;;;;;5068130;28;20474;-58
2022/02/11 02:26:47;;;;;;;22.57;13.17;;;2.40;99.90;;;;;;5068044;28;20517;-57
2022/02/11 02:32:45;;;;;;;20.47;12.87;;;2.20;99.90;;;;;;5025540;28;20432;-58
2022/02/11 02:57:38;;;;;;;24.53;13.83;;;2.20;99.90;;;;;;5088921;28;20429;-58
2022/02/11 03:00:26;;;;;;;20.53;13.00;;;2.10;99.90;;;;;;5088851;28;20569;-57
2022/02/11 03:50:12;;;;;;;22.07;12.57;;;2.20;99.90;;;;;;5088111;28;20799;-59
2022/02/11 03:56:20;;;;;;;23.93;13.47;;;2.20;99.90;;;;;;5012770;28;20561;-60
2022/02/11 04:21:20;;;;;;;19.20;11.57;;;2.50;99.90;;;;;;5074087;28;20478;-59
2022/02/11 04:56:47;;;;;;;27.80;16.10;;;2.50;99.90;;;;;;5073215;28;20995;-62
2022/02/11 05:01:59;;;;;;;27.90;16.53;;;2.50;99.90;;;;;;5072825;28;20426;-61
2022/02/11 05:04:25;;;;;;;29.97;16.43;;;2.50;99.90;;;;;;5072549;28;20478;-60
2022/02/11 05:06:52;;;;;;;27.90;15.60;;;2.50;99.90;;;;;;5073102;28;20860;-59
2022/02/11 05:09:21;;;;;;;26.97;15.50;;;2.50;99.90;;;;;;5073427;28;20444;-59
2022/02/11 05:11:47;;;;;;;28.43;14.63;;;2.60;99.90;;;;;;5073175;28;20543;-59
2022/02/11 05:14:14;;;;;;;23.60;12.07;;;2.60;99.90;;;;;;5073074;28;20471;-60
2022/02/11 05:16:41;;;;;;;27.37;14.37;;;2.70;99.90;;;;;;5073062;28;20451;-60
2022/02/11 05:19:07;;;;;;;19.23;12.60;;;2.70;99.90;;;;;;5072648;28;20452;-56
2022/02/11 05:21:34;;;;;;;28.00;16.93;;;2.70;99.90;;;;;;5073168;28;20492;-57
2022/02/11 05:24:02;;;;;;;32.40;16.17;;;2.70;99.90;;;;;;5072738;28;20516;-58
2022/02/11 05:26:30;;;;;;;19.80;12.27;;;2.70;99.90;;;;;;5072396;28;20446;-59
2022/02/11 05:28:56;;;;;;;28.83;14.87;;;2.70;99.90;;;;;;5073039;28;20854;-56
2022/02/11 05:31:23;;;;;;;23.10;13.17;;;2.70;99.90;;;;;;5072619;28;20492;-59
2022/02/11 05:33:50;;;;;;;28.93;14.40;;;2.80;99.90;;;;;;5072854;28;20992;-60
2022/02/11 05:36:17;;;;;;;26.73;14.73;;;2.90;99.90;;;;;;5072645;28;20451;-57
2022/02/11 05:38:44;;;;;;;25.63;12.67;;;2.90;99.90;;;;;;5072318;28;20806;-60
2022/02/11 05:41:11;;;;;;;22.13;12.73;;;3.00;99.90;;;;;;5072675;28;20471;-60
2022/02/11 05:43:40;;;;;;;17.40;9.77;;;3.00;99.90;;;;;;5071142;28;20514;-59
2022/02/11 05:46:08;;;;;;;25.80;13.03;;;3.00;99.90;;;;;;5071919;28;20451;-57
2022/02/11 05:48:36;;;;;;;21.73;12.77;;;3.00;99.90;;;;;;5072359;28;20522;-58
2022/02/11 05:51:03;;;;;;;20.10;11.77;;;3.00;99.90;;;;;;5072309;28;20300;-59
2022/02/11 05:53:29;;;;;;;25.37;13.07;;;3.00;99.90;;;;;;5071915;28;20471;-60
2022/02/11 05:55:56;;;;;;;19.80;13.27;;;3.10;99.90;;;;;;5072281;28;20467;-59
2022/02/11 05:58:23;;;;;;;25.37;13.40;;;3.10;99.90;;;;;;5072182;28;20444;-59
2022/02/11 06:00:51;;;;;;;26.60;12.77;;;3.10;99.90;;;;;;5072645;28;20479;-60
2022/02/11 06:03:17;;;;;;;25.00;11.53;;;3.10;99.90;;;;;;5072059;28;20471;-60
2022/02/11 06:05:44;;;;;;;25.43;11.27;;;3.20;99.90;;;;;;5072103;28;20473;-57
2022/02/11 06:08:11;;;;;;;17.13;10.97;;;3.20;99.90;;;;;;5072225;28;20455;-59
2022/02/11 06:10:38;;;;;;;14.20;9.07;;;3.20;99.90;;;;;;5072127;28;20886;-60
2022/02/11 06:13:05;;;;;;;19.03;10.90;;;3.30;99.90;;;;;;5072032;28;20472;-59
2022/02/11 06:15:32;;;;;;;22.57;10.03;;;3.30;99.90;;;;;;5071592;28;21015;-64
2022/02/11 06:18:00;;;;;;;15.37;9.17;;;3.30;99.90;;;;;;5071584;28;20216;-64
2022/02/11 06:20:28;;;;;;;18.50;8.67;;;3.30;99.90;;;;;;5071425;28;20474;-64
2022/02/11 06:22:55;;;;;;;16.67;7.40;;;3.40;99.90;;;;;;5071689;28;21041;-63
2022/02/11 06:25:22;;;;;;;17.57;9.13;;;3.40;99.90;;;;;;5071681;28;20813;-64
2022/02/11 06:27:49;;;;;;;15.27;8.47;;;3.50;99.90;;;;;;5072121;28;20219;-64
2022/02/11 06:30:15;;;;;;;18.87;7.03;;;3.50;99.90;;;;;;5071979;28;20870;-64
2022/02/11 06:32:42;;;;;;;20.57;7.77;;;3.60;99.90;;;;;;5071898;28;20475;-63
2022/02/11 06:35:12;;;;;;;16.17;6.80;;;3.60;99.90;;;;;;5071599;28;20217;-63
2022/02/11 06:37:41;;;;;;;14.00;7.37;;;3.60;99.90;;;;;;5071494;28;20205;-63
2022/02/11 06:40:10;;;;;;;10.67;5.73;;;3.70;99.90;;;;;;5071635;28;20230;-62
2022/02/11 06:42:37;;;;;;;16.20;6.60;;;3.70;99.90;;;;;;5071633;28;20220;-63
2022/02/11 06:45:04;;;;;;;19.47;7.50;;;3.70;99.90;;;;;;5071716;28;20209;-64
2022/02/11 06:47:31;;;;;;;17.73;7.03;;;3.70;99.90;;;;;;5070947;28;20209;-61
2022/02/11 06:49:57;;;;;;;19.37;7.10;;;3.70;99.90;;;;;;5071968;28;20208;-61
2022/02/11 06:52:25;;;;;;;14.03;6.10;;;3.70;99.90;;;;;;5071558;28;20630;-61
2022/02/11 06:54:52;;;;;;;16.57;6.70;;;3.70;99.90;;;;;;5071849;28;20209;-60
2022/02/11 06:57:19;;;;;;;14.27;5.07;;;3.80;99.90;;;;;;5071134;28;20473;-61
2022/02/11 06:59:45;;;;;;;11.03;4.37;;;3.80;99.90;;;;;;5071386;28;20313;-60
2022/02/11 07:02:17;;;;;;;17.77;5.50;;;3.80;99.90;;;;;;5071194;28;20213;-62
2022/02/11 07:04:45;;;;;;;13.23;5.90;;;3.80;99.90;;;;;;5071481;28;20205;-61
2022/02/11 07:07:12;;;;;;;9.10;5.07;;;3.80;99.90;;;;;;5071896;28;20205;-57
2022/02/11 07:09:40;;;;;;;12.07;5.60;;;3.80;99.90;;;;;;5071437;28;21001;-62
2022/02/11 07:12:08;;;;;;;12.00;5.53;;;3.80;99.90;;;;;;5071871;28;20629;-61
2022/02/11 07:14:34;;;;;;;15.43;5.20;;;3.70;99.90;;;;;;5071542;28;20205;-61
2022/02/11 07:17:01;;;;;;;12.27;4.77;;;3.70;99.90;;;;;;5071710;28;20204;-65
2022/02/11 07:19:30;;;;;;;10.20;4.07;;;3.70;99.90;;;;;;5071386;28;20212;-59
2022/02/11 07:22:00;;;;;;;11.73;3.97;;;3.70;99.90;;;;;;5071869;28;20444;-61
2022/02/11 07:24:27;;;;;;;10.07;3.10;;;3.60;99.90;;;;;;5071523;28;20252;-61
2022/02/11 07:26:55;;;;;;;8.23;2.33;;;3.70;99.90;;;;;;5074417;28;20205;-63
2022/02/11 07:29:22;;;;;;;14.47;2.93;;;3.70;99.90;;;;;;5074806;28;20859;-63
2022/02/11 07:31:49;;;;;;;10.90;2.73;;;3.80;99.90;;;;;;5075587;28;20259;-58
2022/02/11 07:34:16;;;;;;;7.60;2.80;;;3.90;99.90;;;;;;5073239;28;20221;-63
2022/02/11 07:36:43;;;;;;;10.43;2.70;;;3.90;99.90;;;;;;5069150;28;20205;-62
2022/02/11 07:39:10;;;;;;;13.53;2.73;;;3.90;99.90;;;;;;5074424;28;20698;-63
2022/02/11 07:41:37;;;;;;;7.83;2.27;;;3.90;99.90;;;;;;5074111;28;20232;-60
2022/02/11 07:44:06;;;;;;;8.30;2.53;;;4.00;99.90;;;;;;5074536;28;20232;-60
2022/02/11 07:46:33;;;;;;;8.00;2.13;;;3.90;99.90;;;;;;5073824;28;20447;-63
2022/02/11 07:49:00;;;;;;;12.40;2.20;;;3.90;99.90;;;;;;5074383;28;20575;-60
2022/02/11 07:51:28;;;;;;;10.17;1.80;;;3.80;99.90;;;;;;5074350;28;20817;-57
2022/02/11 07:53:55;;;;;;;8.73;2.67;;;3.80;99.90;;;;;;5076112;28;20221;-62
2022/02/11 07:56:22;;;;;;;5.50;1.77;;;3.70;99.90;;;;;;5075096;28;20213;-60
2022/02/11 07:58:51;;;;;;;5.40;2.17;;;3.70;99.90;;;;;;5074116;28;20582;-58
2022/02/11 08:01:20;;;;;;;6.27;2.03;;;3.70;99.90;;;;;;5074169;28;20479;-57
2022/02/11 08:03:47;;;;;;;6.27;2.00;;;3.70;99.90;;;;;;5073878;28;20876;-62
2022/02/11 08:06:14;;;;;;;10.93;2.20;;;3.70;99.90;;;;;;5073579;28;20474;-59
2022/02/11 08:08:40;;;;;;;8.43;2.07;;;3.70;99.90;;;;;;5074001;28;20213;-62
2022/02/11 08:11:07;;;;;;;9.13;1.80;;;3.80;99.90;;;;;;5074002;28;20706;-62
2022/02/11 08:13:36;;;;;;;10.10;2.40;;;3.80;99.90;;;;;;5074182;28;20230;-61
2022/02/11 08:16:03;;;;;;;10.00;2.30;;;3.80;99.90;;;;;;5073480;28;20217;-61
2022/02/11 08:18:32;;;;;;;9.47;2.20;;;3.80;99.90;;;;;;5073976;28;20210;-61
2022/02/11 08:20:58;;;;;;;7.13;1.90;;;3.80;99.90;;;;;;5073309;28;20703;-61
2022/02/11 08:23:25;;;;;;;8.40;1.70;;;3.90;99.90;;;;;;5073519;28;20644;-60
2022/02/11 08:25:52;;;;;;;9.13;1.90;;;3.80;99.90;;;;;;5073455;28;20216;-61
2022/02/11 08:28:19;;;;;;;9.47;1.70;;;3.90;99.90;;;;;;5073512;28;20214;-61
2022/02/11 08:30:49;;;;;;;10.00;1.93;;;4.00;99.90;;;;;;5073678;28;20208;-60
2022/02/11 08:33:16;;;;;;;6.20;2.30;;;4.00;99.90;;;;;;5073162;28;20230;-60
2022/02/11 08:35:45;;;;;;;7.00;1.47;;;4.00;99.90;;;;;;5073030;28;20204;-60
2022/02/11 08:38:12;;;;;;;11.90;2.00;;;4.00;99.90;;;;;;5073201;28;20209;-63
2022/02/11 08:40:38;;;;;;;5.97;1.97;;;4.10;94.90;;;;;;5072872;28;20222;-64
2022/02/11 08:43:05;;;;;;;8.73;1.90;;;4.10;93.00;;;;;;5074163;28;20231;-64
2022/02/11 08:45:36;;;;;;;9.07;1.80;;;4.10;96.50;;;;;;5073558;28;20205;-64
2022/02/11 08:48:04;;;;;;;11.30;2.00;;;4.10;94.10;;;;;;5080409;28;20209;-63
2022/02/11 08:50:30;;;;;;;7.83;1.63;;;4.10;93.40;;;;;;5072879;28;20214;-61
2022/02/11 08:52:59;;;;;;;11.00;1.70;;;4.10;80.40;;;;;;5073175;28;20230;-60
2022/02/11 08:55:26;;;;;;;9.17;2.77;;;4.10;87.20;;;;;;5072621;28;20216;-61
2022/02/11 08:57:53;;;;;;;11.00;1.80;;;4.20;76.70;;;;;;5072954;28;20209;-59
2022/02/11 09:00:20;;;;;;;6.90;2.20;;;4.20;54.80;;;;;;5072786;28;20229;-62
2022/02/11 09:02:47;;;;;;;11.53;1.93;;;4.30;39.00;;;;;;5072568;28;20283;-61
2022/02/11 09:05:13;;;;;;;9.03;2.10;;;4.20;17.70;;;;;;5072553;28;20667;-63
2022/02/11 09:07:40;;;;;;;13.97;2.43;;;4.20;9.80;;;;;;5072285;28;20224;-62
2022/02/11 09:10:09;;;;;;;9.73;2.17;;;4.30;12.80;;;;;;5073724;28;20206;-61
2022/02/11 09:12:36;;;;;;;13.63;2.20;;;4.40;32.80;;;;;;5072156;28;20229;-61
2022/02/11 09:15:03;;;;;;;7.03;2.03;;;4.40;30.30;;;;;;5072447;28;20261;-62
2022/02/11 09:17:30;;;;;;;13.17;3.13;;;4.50;23.70;;;;;;5072136;28;20208;-63
2022/02/11 09:19:56;;;;;;;15.07;2.97;;;4.50;23.40;;;;;;5072776;28;20207;-62
2022/02/11 09:22:23;;;;;;;11.23;2.10;;;4.50;23.10;;;;;;5072631;28;20317;-63
2022/02/11 09:24:51;;;;;;;7.90;1.73;;;4.50;32.90;;;;;;5072007;28;20210;-59
2022/02/11 09:27:19;;;;;;;7.73;1.93;;;4.60;23.00;;;;;;5072234;28;20312;-62
2022/02/11 09:29:46;;;;;;;8.67;2.37;;;4.60;14.30;;;;;;5070630;28;20827;-61
2022/02/11 09:32:13;;;;;;;10.33;1.97;;;4.60;22.10;;;;;;5052335;28;20210;-60
2022/02/11 09:34:40;;;;;;;9.90;1.83;;;4.60;30.00;;;;;;5053808;28;20210;-62
2022/02/11 09:37:07;;;;;;;7.33;2.33;;;4.70;17.90;;;;;;5072169;28;20232;-61
2022/02/11 09:39:33;;;;;;;13.00;1.73;;;4.70;1.00;;;;;;5071957;28;20218;-61
2022/02/11 09:42:01;;;;;;;11.93;1.80;;;4.80;1.00;;;;;;5057718;28;20226;-61
2022/02/11 09:44:31;;;;;;;10.60;2.43;;;4.80;1.00;;;;;;5062211;28;20626;-62
2022/02/11 09:46:58;;;;;;;4.43;1.30;;;4.70;1.00;;;;;;5071642;28;20215;-62
2022/02/11 09:49:25;;;;;;;10.70;1.90;;;4.80;1.00;;;;;;5071597;28;20213;-63
2022/02/11 09:51:53;;;;;;;10.43;2.20;;;4.80;1.00;;;;;;5071515;28;20233;-60
2022/02/11 09:54:21;;;;;;;10.07;2.03;;;4.90;1.00;;;;;;5071746;28;20636;-63
2022/02/11 09:56:49;;;;;;;10.50;2.67;;;5.00;1.00;;;;;;5071309;28;20300;-63
2022/02/11 09:59:16;;;;;;;17.13;2.50;;;5.10;1.00;;;;;;5071473;28;20207;-60
2022/02/11 10:01:46;;;;;;;8.33;1.70;;;5.20;1.00;;;;;;5071684;28;20228;-66
2022/02/11 10:04:15;;;;;;;15.53;2.13;;;5.20;1.00;;;;;;5071698;28;20308;-65
2022/02/11 10:06:43;;;;;;;8.77;2.17;;;5.30;1.00;;;;;;5071451;28;20212;-63
2022/02/11 10:09:10;;;;;;;11.83;1.97;;;5.30;1.00;;;;;;5071373;28;20211;-63
2022/02/11 10:11:37;;;;;;;10.87;1.50;;;5.30;99.90;;;;;;5071346;28;20215;-62
2022/02/11 10:14:33;;;;;;;14.00;2.10;;;5.40;1.00;;;;;;5071191;28;20714;-63
2022/02/11 10:17:04;;;;;;;11.03;1.83;;;5.40;99.90;;;;;;5036376;28;20629;-63
2022/02/11 10:19:46;;;;;;;13.13;2.43;;;5.50;99.90;;;;;;5071448;28;20722;-60
2022/02/11 10:22:16;;;;;;;10.90;2.00;;;5.80;99.90;;;;;;5071050;28;20653;-61
2022/02/11 10:24:43;;;;;;;12.90;2.43;;;6.00;99.90;;;;;;5071406;28;20238;-63
2022/02/11 10:27:22;;;;;;;6.30;1.80;;;6.00;99.90;;;;;;5071057;28;20216;-62
2022/02/11 10:29:51;;;;;;;16.53;2.37;;;5.90;99.90;;;;;;5071519;28;20205;-63
2022/02/11 10:32:19;;;;;;;12.00;2.43;;;5.90;99.90;;;;;;5071193;28;20197;-60
2022/02/11 10:34:53;;;;;;;11.20;2.40;;;5.70;1.00;;;;;;5071103;28;20204;-62
2022/02/11 10:37:20;;;;;;;7.77;2.00;;;5.70;99.90;;;;;;5071362;28;20211;-63
2022/02/11 10:39:56;;;;;;;14.80;2.53;;;5.70;99.90;;;;;;5071322;28;20687;-62
2022/02/11 10:42:41;;;;;;;13.37;3.17;;;5.70;99.90;;;;;;5071463;28;20224;-63
2022/02/11 10:45:26;;;;;;;12.10;2.10;;;5.70;99.90;;;;;;5070738;28;20720;-65
2022/02/11 10:50:54;;;;;;;12.97;2.23;;;5.70;99.90;;;;;;5109591;27;20913;-63
2022/02/11 10:53:23;;;;;;;15.50;2.37;;;5.70;99.90;;;;;;5088687;28;20632;-62
2022/02/11 10:55:51;;;;;;;12.07;2.37;;;5.70;99.90;;;;;;5088809;28;20294;-61
2022/02/11 10:58:20;;;;;;;10.00;1.60;;;5.80;49.80;;;;;;5089002;28;20731;-60
2022/02/11 11:00:47;;;;;;;12.20;2.27;;;5.60;1.00;;;;;;5088693;28;20269;-62
2022/02/11 11:03:14;;;;;;;11.23;2.40;;;5.60;1.00;;;;;;5088678;28;20784;-62
2022/02/11 11:05:43;;;;;;;6.77;1.80;;;5.60;1.00;;;;;;5094240;28;20540;-62
2022/02/11 11:08:12;;;;;;;9.20;1.93;;;5.50;1.00;;;;;;5108942;28;20204;-61
2022/02/11 11:10:42;;;;;;;18.20;2.90;;;5.60;1.00;;;;;;5108339;28;20747;-60
2022/02/11 11:13:11;;;;;;;13.77;2.87;;;5.50;1.00;;;;;;5108807;28;20367;-62
2022/02/11 11:15:38;;;;;;;13.23;2.13;;;5.60;1.00;;;;;;5108364;28;20295;-60
2022/02/11 11:18:07;;;;;;;9.33;2.07;;;5.60;99.90;;;;;;5108377;28;20203;-57
2022/02/11 11:20:35;;;;;;;13.10;2.33;;;5.60;99.90;;;;;;5108527;28;20674;-57
2022/02/11 11:23:04;;;;;;;13.10;2.97;;;5.60;99.90;;;;;;5108325;28;20223;-60
2022/02/11 11:25:52;;;;;;;7.77;2.40;;;5.50;99.90;;;;;;5108492;28;20207;-65
2022/02/11 11:28:43;;;;;;;12.17;1.97;;;5.50;99.90;;;;;;5108388;28;20206;-64
2022/02/11 11:31:13;;;;;;;7.83;2.07;;;5.80;99.90;;;;;;5108517;28;20204;-64
2022/02/11 11:33:40;;;;;;;11.93;2.47;;;5.90;99.90;;;;;;5108308;28;20234;-66
2022/02/11 11:36:09;;;;;;;9.20;2.00;;;6.10;99.90;;;;;;5107971;28;20685;-65
2022/02/11 11:38:39;;;;;;;9.47;2.13;;;6.30;99.90;;;;;;5108363;28;20215;-65
2022/02/11 11:41:10;;;;;;;7.67;2.00;;;6.30;43.70;;;;;;5108001;28;20203;-65
2022/02/11 11:43:38;;;;;;;9.50;1.80;;;6.40;2.80;;;;;;5108406;28;20332;-67
2022/02/11 11:46:05;;;;;;;8.43;2.03;;;6.40;1.00;;;;;;5107142;28;20256;-67
2022/02/11 11:48:51;;;;;;;9.27;2.23;;;6.50;1.00;;;;;;5104656;28;20196;-61
2022/02/11 11:51:17;;;;;;;8.60;2.10;;;6.50;1.00;;;;;;5107783;28;20203;-60
2022/02/11 11:53:44;;;;;;;7.97;2.10;;;6.40;1.00;;;;;;5107870;28;20649;-59
2022/02/11 11:56:33;;;;;;;7.40;1.87;;;6.30;1.00;;;;;;5107148;28;20203;-60
2022/02/11 11:59:13;;;;;;;12.77;2.43;;;6.20;1.00;;;;;;5108145;28;20223;-60
2022/02/11 12:01:57;;;;;;;13.07;2.60;;;6.10;1.00;;;;;;5096580;28;20236;-60
2022/02/11 12:04:25;;;;;;;8.07;2.00;;;6.10;1.00;;;;;;5094256;28;20290;-61
2022/02/11 12:06:53;;;;;;;9.30;2.10;;;5.90;1.00;;;;;;5094140;28;20212;-62
2022/02/11 12:09:22;;;;;;;8.27;2.23;;;5.90;1.00;;;;;;5094138;28;20258;-62
2022/02/11 12:11:54;;;;;;;8.07;1.63;;;5.90;1.00;;;;;;5094335;28;20678;-61
2022/02/11 12:14:21;;;;;;;10.50;2.10;;;5.90;1.00;;;;;;5093828;28;20269;-61
2022/02/11 12:16:48;;;;;;;7.10;1.43;;;6.10;1.00;;;;;;5093823;28;20215;-62
2022/02/11 12:19:15;;;;;;;6.00;1.70;;;6.30;1.00;;;;;;5094029;28;20228;-62
2022/02/11 12:21:42;;;;;;;4.43;1.43;;;6.40;1.00;;;;;;5094363;28;20295;-62
2022/02/11 12:29:46;;;;;;;8.43;1.63;;;6.50;1.00;;;;;;5094640;28;20231;-61
2022/02/11 12:32:13;;;;;;;5.37;1.40;;;6.50;1.00;;;;;;5093946;28;20208;-61
2022/02/11 12:34:40;;;;;;;7.80;2.10;;;6.60;1.00;;;;;;5093810;28;20223;-60
2022/02/11 12:37:10;;;;;;;9.13;1.73;;;6.80;1.00;;;;;;5093202;28;20266;-64
2022/02/11 12:39:36;;;;;;;6.43;1.43;;;7.00;1.00;;;;;;5093364;28;20201;-64
2022/02/11 12:42:05;;;;;;;8.10;2.40;;;7.10;1.00;;;;;;5093594;28;20207;-63
2022/02/11 12:44:34;;;;;;;7.17;1.67;;;7.10;1.00;;;;;;5093272;28;20225;-62
2022/02/11 12:47:02;;;;;;;9.37;2.10;;;7.00;1.00;;;;;;5093447;28;20230;-60
2022/02/11 12:49:33;;;;;;;8.80;1.63;;;6.90;1.00;;;;;;5093134;28;20236;-60
2022/02/11 12:52:00;;;;;;;17.17;6.23;;;6.80;1.00;;;;;;5093484;28;20261;-58
2022/02/11 12:54:28;;;;;;;6.07;1.80;;;6.60;99.90;;;;;;5093472;28;20228;-63
2022/02/11 12:57:03;;;;;;;10.90;1.87;;;6.60;99.90;;;;;;5093064;28;20200;-64
2022/02/11 12:59:32;;;;;;;5.20;1.67;;;6.60;99.90;;;;;;5093159;28;20203;-66
2022/02/11 13:01:58;;;;;;;11.03;2.03;;;6.60;99.90;;;;;;5092919;28;20254;-61
2022/02/11 13:04:25;;;;;;;7.93;1.40;;;6.50;99.90;;;;;;5092955;28;20604;-60
2022/02/11 13:06:53;;;;;;;8.33;1.50;;;6.60;99.90;;;;;;5092680;28;20212;-60
2022/02/11 13:09:22;;;;;;;6.00;1.33;;;6.60;99.90;;;;;;5093176;28;20642;-61
2022/02/11 13:11:55;;;;;;;7.03;1.70;;;6.50;99.90;;;;;;5092450;28;20208;-60
2022/02/11 13:14:21;;;;;;;5.53;1.40;;;6.60;99.90;;;;;;5092640;28;20262;-61
2022/02/11 13:16:49;;;;;;;5.10;1.20;;;6.50;99.90;;;;;;5092574;28;20208;-60
2022/02/11 13:19:19;;;;;;;11.50;1.53;;;6.50;99.90;;;;;;5092443;28;20204;-61
2022/02/11 13:21:46;;;;;;;6.40;1.23;;;6.50;99.90;;;;;;5092986;28;20204;-60
2022/02/11 13:24:13;;;;;;;14.83;1.80;;;6.50;99.90;;;;;;5092419;28;20228;-61
2022/02/11 13:26:40;;;;;;;7.23;1.50;;;6.30;99.90;;;;;;5092266;28;20216;-59
2022/02/11 13:29:13;;;;;;;8.67;1.47;;;6.30;99.90;;;;;;5092525;28;20250;-60
2022/02/11 13:31:49;;;;;;;13.17;2.00;;;6.20;99.90;;;;;;5092382;28;20208;-59
2022/02/11 13:34:17;;;;;;;10.10;1.67;;;6.10;99.90;;;;;;5092972;28;20230;-59
2022/02/11 13:36:48;;;;;;;2.73;1.20;;;6.10;99.90;;;;;;5092172;28;20216;-60
2022/02/11 13:39:28;;;;;;;3.93;1.63;;;6.10;99.90;;;;;;5092902;28;20208;-61
2022/02/11 13:41:55;;;;;;;3.50;1.40;;;6.10;99.90;;;;;;5092494;28;20215;-60
2022/02/11 13:44:22;;;;;;;7.67;1.20;;;6.00;99.90;;;;;;5092411;28;20289;-59
2022/02/11 13:46:54;;;;;;;9.97;1.40;;;5.90;99.90;;;;;;5092015;28;20698;-63
2022/02/11 13:49:22;;;;;;;9.00;1.87;;;5.80;99.90;;;;;;5091736;28;20262;-61
2022/02/11 13:54:57;;;;;;;9.47;1.97;;;5.90;99.90;;;;;;5091173;28;20873;-62
2022/02/11 13:57:24;;;;;;;9.37;1.93;;;5.90;99.90;;;;;;5091834;28;20236;-62
2022/02/11 13:59:51;;;;;;;4.30;1.40;;;6.00;99.90;;;;;;5091696;28;20192;-62
2022/02/11 14:02:21;;;;;;;8.47;2.03;;;6.00;99.90;;;;;;5092154;28;20675;-56
2022/02/11 14:05:03;;;;;;;8.27;2.10;;;6.00;99.90;;;;;;5092607;28;20303;-62
2022/02/11 14:07:30;;;;;;;7.80;1.70;;;5.90;99.90;;;;;;5097530;28;20704;-61
2022/02/11 14:09:57;;;;;;;12.57;1.37;;;6.00;99.90;;;;;;5094984;28;20220;-59
2022/02/11 14:12:31;;;;;;;7.53;2.10;;;6.00;99.90;;;;;;5091729;28;20277;-58
2022/02/11 14:15:02;;;;;;;7.93;2.10;;;5.90;99.90;;;;;;5091560;28;20207;-60
2022/02/11 14:17:32;;;;;;;7.93;2.03;;;5.90;99.90;;;;;;5092130;28;20220;-61
2022/02/11 14:19:59;;;;;;;13.03;2.13;;;5.90;99.90;;;;;;5092950;28;20658;-63
2022/02/11 14:22:26;;;;;;;9.63;2.53;;;5.90;99.90;;;;;;5091941;28;20341;-63
2022/02/11 14:24:53;;;;;;;6.87;1.67;;;6.00;99.90;;;;;;5090680;28;20204;-58
2022/02/11 14:27:19;;;;;;;9.17;1.90;;;6.00;99.90;;;;;;5091276;28;20204;-60
2022/02/11 14:29:46;;;;;;;11.43;2.13;;;6.00;99.90;;;;;;5091397;28;20750;-59
2022/02/11 14:32:13;;;;;;;10.20;2.13;;;6.00;99.90;;;;;;5091624;28;20204;-60
2022/02/11 14:34:42;;;;;;;7.83;1.67;;;6.00;99.90;;;;;;5091489;28;20574;-58
2022/02/11 14:37:09;;;;;;;11.63;2.00;;;5.90;99.90;;;;;;5091484;28;20298;-60
2022/02/11 14:39:35;;;;;;;12.60;1.90;;;5.90;99.90;;;;;;5091867;28;20261;-59
2022/02/11 14:42:05;;;;;;;8.27;1.73;;;5.90;99.90;;;;;;5091682;28;20712;-58
2022/02/11 14:44:33;;;;;;;8.07;2.03;;;6.00;99.90;;;;;;5091296;28;20231;-58
2022/02/11 14:47:03;;;;;;;14.47;2.40;;;6.00;99.90;;;;;;5091480;28;20215;-58
2022/02/11 14:49:30;;;;;;;13.07;1.87;;;5.90;99.90;;;;;;5091612;28;20215;-58
2022/02/11 14:52:00;;;;;;;9.17;1.87;;;5.80;99.90;;;;;;5091266;28;20200;-58
2022/02/11 14:54:28;;;;;;;4.33;1.43;;;5.80;99.90;;;;;;5091230;28;20224;-58
2022/02/11 14:56:55;;;;;;;6.57;1.63;;;5.70;99.90;;;;;;5091124;28;20669;-59
2022/02/11 14:59:22;;;;;;;13.30;1.53;;;5.60;99.90;;;;;;5091348;28;20681;-58
2022/02/11 15:01:50;;;;;;;15.17;2.10;;;5.60;99.90;;;;;;5091650;28;20214;-56
2022/02/11 15:04:17;;;;;;;6.33;1.50;;;5.60;99.90;;;;;;5091380;28;20552;-58
2022/02/11 15:06:46;;;;;;;15.37;1.77;;;5.70;99.90;;;;;;5090944;28;20618;-58
2022/02/11 15:09:15;;;;;;;8.03;1.80;;;5.60;99.90;;;;;;5091207;28;20204;-57
2022/02/11 15:11:42;;;;;;;7.03;1.80;;;5.60;99.90;;;;;;5091105;28;20223;-55
2022/02/11 15:14:09;;;;;;;5.97;1.57;;;5.60;99.90;;;;;;5091524;28;20326;-57
2022/02/11 15:16:36;;;;;;;6.77;1.50;;;5.80;99.90;;;;;;5091086;28;20555;-59
2022/02/11 15:19:04;;;;;;;4.60;1.93;;;5.90;99.90;;;;;;5091432;28;20234;-57
2022/02/11 15:21:31;;;;;;;6.20;1.67;;;5.90;99.90;;;;;;5091273;28;20840;-58
2022/02/11 15:23:58;;;;;;;4.50;0.87;;;6.00;99.90;;;;;;5091139;28;20664;-57
2022/02/11 15:26:26;;;;;;;12.97;1.70;;;6.00;99.90;;;;;;5090841;28;20608;-57
2022/02/11 15:28:52;;;;;;;10.70;1.80;;;5.90;99.90;;;;;;5090963;28;20208;-58
2022/02/11 15:31:19;;;;;;;5.23;1.63;;;5.90;99.90;;;;;;5091130;28;20232;-58
2022/02/11 15:33:46;;;;;;;9.03;1.87;;;5.90;99.90;;;;;;5091093;28;20572;-57
2022/02/11 15:36:14;;;;;;;8.13;2.10;;;5.90;99.90;;;;;;5092146;28;20208;-57
2022/02/11 15:38:41;;;;;;;9.77;1.20;;;5.90;99.90;;;;;;5094792;28;20633;-60
2022/02/11 15:41:08;;;;;;;6.10;1.57;;;5.90;99.90;;;;;;5094914;28;20548;-58
2022/02/11 15:43:37;;;;;;;6.37;1.87;;;5.90;99.90;;;;;;5094693;28;20253;-58
2022/02/11 15:46:04;;;;;;;5.13;1.33;;;5.90;99.90;;;;;;5094244;28;20208;-57
2022/02/11 15:48:33;;;;;;;5.53;1.10;;;5.90;99.90;;;;;;5094664;28;20226;-57
2022/02/11 15:51:01;;;;;;;8.27;1.60;;;5.90;99.90;;;;;;5094685;28;20224;-58
2022/02/11 15:53:29;;;;;;;4.33;1.10;;;5.90;99.90;;;;;;5094467;28;20230;-58
2022/02/11 15:55:56;;;;;;;7.10;1.53;;;5.80;99.90;;;;;;5094491;28;20208;-58
2022/02/11 15:58:22;;;;;;;1.90;1.00;;;5.80;99.90;;;;;;5094538;28;20208;-59
2022/02/11 16:00:51;;;;;;;4.30;1.37;;;5.80;99.90;;;;;;5094723;28;20573;-63
2022/02/11 16:03:18;;;;;;;5.77;1.43;;;5.70;99.90;;;;;;5094206;28;20266;-60
2022/02/11 16:05:45;;;;;;;3.03;0.73;;;5.70;99.90;;;;;;5094255;28;20204;-60
2022/02/11 16:08:11;;;;;;;2.83;0.90;;;5.70;99.90;;;;;;5094308;28;20645;-62
2022/02/11 16:10:38;;;;;;;11.43;1.93;;;5.60;99.90;;;;;;5094476;28;20270;-61
2022/02/11 16:13:05;;;;;;;1.77;1.20;;;5.60;99.90;;;;;;5094522;28;20224;-61
2022/02/11 16:15:32;;;;;;;2.53;0.90;;;5.60;99.90;;;;;;5094816;28;20215;-61
2022/02/11 16:18:03;;;;;;;6.80;1.03;;;5.60;99.90;;;;;;5094419;28;20205;-61